createdAt,value
2022-10-09T00:04:41.310Z,1006
2022-10-09T00:33:44.516Z,1005
2022-10-09T01:02:53.798Z,1005
2022-10-09T01:31:45.512Z,1005
2022-10-09T02:00:43.189Z,1005
2022-10-09T02:29:52.141Z,1004
2022-10-09T02:59:02.757Z,1004
2022-10-09T03:28:05.291Z,1004
2022-10-09T03:57:14.704Z,1004
2022-10-09T04:26:36.351Z,1004
2022-10-09T04:55:54.550Z,1004
2022-10-09T05:25:05.310Z,1004
2022-10-09T05:54:20.341Z,1004
2022-10-09T06:23:21.521Z,1004
2022-10-09T06:52:36.386Z,1004
2022-10-09T07:21:48.821Z,1004
2022-10-09T07:51:06.111Z,1004
2022-10-09T08:20:27.470Z,1004
2022-10-09T08:49:42.986Z,1004
2022-10-09T09:19:11.024Z,1004
2022-10-09T09:48:36.542Z,1003
2022-10-09T10:18:03.150Z,1003
2022-10-09T10:47:19.412Z,1002
2022-10-09T11:16:53.743Z,1002
2022-10-09T11:46:20.895Z,1001
2022-10-09T12:15:47.614Z,1001
2022-10-09T12:45:03.178Z,1001
2022-10-09T13:14:10.298Z,1000
2022-10-09T13:43:17.996Z,1000
2022-10-09T14:12:15.745Z,999
2022-10-09T14:41:38.685Z,999
2022-10-09T15:10:17.266Z,999
2022-10-09T15:39:41.446Z,999
2022-10-09T16:09:00.288Z,998
2022-10-09T16:38:22.032Z,998
2022-10-09T17:07:41.916Z,999
2022-10-09T17:36:58.135Z,999
2022-10-09T18:06:20.160Z,999
2022-10-09T18:35:39.359Z,999
2022-10-09T19:05:00.226Z,999
2022-10-09T19:34:19.456Z,999
2022-10-09T20:03:36.063Z,999
2022-10-09T20:33:01.303Z,999
2022-10-09T21:01:39.392Z,999
2022-10-09T21:30:53.309Z,999
2022-10-09T22:00:09.466Z,999
2022-10-09T22:29:29.371Z,999
2022-10-09T22:58:46.294Z,999
2022-10-09T23:28:03.819Z,999
2022-10-09T23:57:13.341Z,999
